Weather observations for the past three days for
Fort Morgan Municipal Airport
Metric (Imperial)
Date Time (mdt) Wind (kph) Vis. (km) Weather Sky Cond. Temperature (ºC) Relative Humidity Wind Chill (°C) Heat Index (°C) Pressure Precipitation (cm)
Air Dwpt 6 hour altimeter (cm) sea level (mb) 1 hr 3 hr 6 hr
Max. Min.
06 09:35 Calm 16.09 A Few Clouds FEW012 20 17 83% 76.45 0.0
06 09:15 E 11 16.09 Partly Cloudy SCT012 20 17 83% 76.45 0.0
06 08:55 E 11 16.09 Partly Cloudy SCT012 19 17 88% 76.48 0.0
06 08:35 E 11 16.09 Fair CLR 19 17 88% 76.48 0.0
06 08:15 E 15 16.09 Fair CLR 19 17 88% 76.45 0.0
06 07:55 NE 13 16.09 Fair CLR 18 16 88% 76.45 0.0
06 07:35 NE 13 16.09 Fair CLR 17 16 94% 76.45 0.0
06 07:15 NE 9 16.09 Fair CLR 16 15 94% 76.45 0.0
06 06:55 E 9 16.09 Fair CLR 15 15 100% 76.43 0.0
06 06:35 NE 11 16.09 Fair CLR 15 15 100% 76.4 0.0
06 06:15 NE 11 16.09 Fair CLR 15 14 94% 76.38 0.0
06 05:55 NE 15 16.09 Fair CLR 15 15 100% 76.4 0.0
06 05:35 NE 11 16.09 Fair CLR 16 15 94% 76.43 0.0
06 05:15 NE 13 16.09 Fair CLR 16 15 94% 76.43 0.0
06 04:55 NE 13 16.09 Fair CLR 16 15 94% 76.43 0.0
06 04:35 N 9 16.09 Fair CLR 16 15 94% 76.43 0.0
06 04:15 NE 7 16.09 Fair CLR 17 16 94% 76.4 0.0
06 03:55 NE 11 16.09 Fair CLR 16 16 100% 76.38 0.0
06 03:35 E 9 16.09 Fair CLR 17 16 94% 76.38 0.0
06 03:15 NE 15 16.09 Fair CLR 17 16 94% 76.38 0.0
06 02:55 NE 15 16.09 Fair CLR 17 16 94% 76.4 0.0
06 02:35 NE 20 16.09 Fair CLR 17 16 94% 76.35 0.0
06 02:15 NE 22 16.09 Fair CLR 18 17 94% 76.35 0.0
06 01:55 NE 28 16.09 Fair CLR 18 17 94% 76.33 0.0
06 01:35 E 19 16.09 Fair CLR 18 17 94% 76.35 0.0
06 01:15 NE 28 16.09 Fair CLR 18 16 88% 76.33 0.0
06 00:55 NE 30 16.09 Fair CLR 18 17 94% 76.33 0.0
06 00:35 NE 30 16.09 Fair CLR 18 17 94% 76.33 0.0
06 00:15 NE 33 G 44 16.09 Fair and Breezy CLR 18 17 94% 76.33 0.0
05 23:55 NE 41 G 52 16.09 Fair and Breezy CLR 19 18 94% 76.33 0.0
05 23:35 NE 33 G 46 16.09 A Few Clouds and Breezy FEW110 19 17 88% 76.33 0.0
05 23:15 NE 30 16.09 A Few Clouds FEW110 20 16 78% 76.33 0.0
05 22:55 NE 17 16.09 Fair CLR 21 16 73% 76.3 0.0
05 22:35 NE 26 16.09 Fair CLR 22 16 69% 76.3 0.0
05 22:15 N 24 16.09 Fair CLR 23 17 69% 76.3 0.0
05 21:55 N 11 16.09 A Few Clouds FEW120 23 16 65% 76.3 0.0
05 21:35 N 24 G 39 16.09 A Few Clouds FEW120 23 16 65% 76.28 0.0
05 21:15 N 15 G 28 16.09 A Few Clouds FEW120 24 16 61% 25 76.25 0.0
05 20:55 N 15 16.09 Fair CLR 24 16 61% 25 76.23 0.0
05 20:35 N 33 16.09 Fair and Breezy CLR 23 16 65% 76.15 0.0
05 20:15 NE 17 16.09 Fair CLR 24 16 61% 25 76.15 0.0
05 19:55 NE 22 16.09 Fair CLR 24 16 61% 25 76.12 0.0
05 19:35 NE 26 G 35 16.09 Partly Cloudy SCT110 25 16 57% 26 76.12 0.0
05 19:15 NE 30 16.09 Mostly Cloudy BKN100 26 16 54% 27 76.15 0.0
05 18:55 NE 22 16.09 Fair CLR 30 15 40% 30 76.15 0.0
05 18:35 E 19 16.09 Fair CLR 32 14 33% 31 76.15 0.0
05 18:15 E 17 16.09 Fair CLR 32 13 31% 31 76.1 0.0
05 17:55 E 13 16.09 Fair CLR 31 14 35% 30 76.1 0.0
05 17:35 E 22 G 31 16.09 Fair CLR 31 13 33% 30 76.1 0.0
05 17:15 E 26 G 41 16.09 Thunderstorm in Vicinity CLR 32 14 33% 31 76.1 0.0
05 16:55 E 24 16.09 Fair CLR 35 14 28% 34 76.07 0.0
05 16:35 NE 17 16.09 Fair CLR 35 13 26% 34 76.05 0.0
05 16:15 Calm 16.09 Fair CLR 35 12 25% 34 76.07 0.0
05 15:55 Calm 16.09 Fair CLR 35 12 25% 34 76.1 0.0
05 15:35 Vrbl 11 16.09 Fair CLR 35 12 25% 34 76.12 0.0
05 15:15 NE 11 G 22 16.09 Fair CLR 35 14 28% 34 76.15 0.0
05 14:55 NE 15 16.09 Fair CLR 34 13 28% 33 76.15 0.0
05 14:35 NE 13 16.09 Fair CLR 34 14 30% 33 76.2 0.0
05 14:15 NE 15 G 26 16.09 Fair CLR 34 12 26% 33 76.2 0.0
05 13:55 E 19 16.09 Fair CLR 34 14 30% 33 76.2 0.0
05 11:55 N 13 16.09 Fair CLR 32 14 33% 31 76.28 0.0
05 11:35 Vrbl 11 16.09 Fair CLR 31 14 35% 30 76.3 0.0
05 11:15 N 15 G 26 16.09 Fair CLR 30 13 35% 29 76.3 0.0
05 10:55 Vrbl 9 16.09 Fair CLR 30 14 38% 29 76.3 0.0
05 10:35 Vrbl 6 G 20 16.09 Fair CLR 28 14 42% 28 76.3 0.0
05 10:15 NW 17 16.09 Fair CLR 27 15 48% 27 76.3 0.0
05 09:55 Vrbl 11 16.09 Fair CLR 25 16 57% 26 76.3 0.0
05 09:35 SW 9 16.09 Fair CLR 24 16 61% 25 76.3 0.0
05 09:15 Vrbl 9 16.09 Fair CLR 23 15 61% 76.3 0.0
05 08:55 SW 9 16.09 Fair CLR 22 15 65% 76.3 0.0
05 08:35 SW 9 16.09 Fair CLR 21 16 73% 76.3 0.0
05 08:15 SW 7 16.09 Fair CLR 20 16 78% 76.3 0.0
05 07:55 SE 7 16.09 Fair CLR 19 16 83% 76.28 0.0
05 07:35 E 9 16.09 Fair CLR 18 16 88% 76.28 0.0
05 07:15 E 6 16.09 Fair CLR 17 16 94% 76.28 0.0
05 06:55 E 6 16.09 Fair CLR 16 15 94% 76.25 0.0
05 06:35 NE 9 16.09 Fair CLR 16 15 94% 76.25 0.0
05 06:15 E 9 16.09 Fair CLR 15 14 94% 76.23 0.0
05 05:55 E 7 16.09 Fair CLR 17 15 88% 76.23 0.0
05 05:35 NE 7 16.09 Fair CLR 16 15 94% 76.2 0.0
05 05:15 SW 7 16.09 Fair CLR 19 15 78% 76.2 0.0
05 04:55 S 13 16.09 Fair CLR 19 15 78% 76.23 0.0
05 04:35 SW 13 16.09 Fair CLR 20 15 73% 76.23 0.0
05 04:15 S 9 16.09 Fair CLR 20 15 73% 76.25 0.0
05 03:55 S 11 16.09 Fair CLR 20 14 69% 76.25 0.0
05 03:35 S 13 16.09 Fair CLR 20 14 69% 76.23 0.0
05 03:15 S 19 16.09 Fair CLR 21 14 64% 76.25 0.0
05 02:55 S 15 16.09 Fair CLR 21 14 64% 76.25 0.0
05 02:35 SE 13 16.09 Fair CLR 20 13 64% 76.25 0.0
05 02:15 SE 11 16.09 Fair CLR 21 12 57% 76.25 0.0
05 01:55 SE 11 16.09 Fair CLR 21 12 57% 76.25 0.0
05 01:35 SE 13 16.09 Fair CLR 22 12 53% 76.23 0.0
05 01:15 SE 11 16.09 Fair CLR 22 12 53% 76.23 0.0
05 00:55 SE 13 16.09 Fair CLR 22 12 53% 76.23 0.0
05 00:35 SE 11 16.09 Fair CLR 22 11 50% 76.23 0.0
05 00:15 SE 9 16.09 Fair CLR 22 11 50% 76.23 0.0
04 23:55 SE 7 16.09 A Few Clouds FEW120 22 10 47% 76.2 0.0
04 23:35 Calm 16.09 A Few Clouds FEW120 20 10 53% 76.2 0.0
04 23:15 SE 7 16.09 Fair CLR 24 10 41% 25 76.2 0.0
04 22:55 S 9 16.09 Fair CLR 24 10 41% 25 76.2 0.0
04 22:35 SE 11 16.09 Fair CLR 23 9 41% 76.2 0.0
04 22:15 SE 11 G 24 16.09 Fair CLR 24 9 39% 25 76.2 0.0
04 21:55 E 19 16.09 Fair CLR 24 9 39% 25 76.2 0.0
04 21:35 NE 11 16.09 Fair CLR 23 9 41% 76.17 0.0
04 21:15 NE 15 16.09 Fair CLR 23 9 41% 76.15 0.0
04 20:55 NE 13 16.09 Fair CLR 24 9 39% 25 76.15 0.0
04 20:35 NE 13 16.09 Fair CLR 25 9 36% 26 76.12 0.0
04 20:15 NE 11 16.09 Fair CLR 25 9 36% 26 76.12 0.0
04 19:55 NE 13 16.09 Fair CLR 25 10 39% 26 76.12 0.0
04 19:35 NE 13 16.09 Fair CLR 26 10 37% 26 76.1 0.0
04 19:15 NE 11 16.09 Fair CLR 28 10 32% 27 76.1 0.0
04 18:55 NE 11 16.09 Fair CLR 30 10 29% 29 76.1 0.0
04 18:35 NE 11 16.09 Fair CLR 32 9 24% 30 76.1 0.0
04 18:15 NE 15 16.09 Fair CLR 33 8 21% 31 76.1 0.0
04 17:55 NE 15 16.09 Fair CLR 33 8 21% 31 76.1 0.0
04 17:35 E 11 16.09 Fair CLR 34 7 19% 32 76.1 0.0
04 17:15 Vrbl 11 16.09 Fair CLR 34 7 19% 32 76.1 0.0
04 16:55 Calm 16.09 Fair CLR 34 7 19% 32 76.1 0.0
04 16:35 SE 7 16.09 Fair CLR 34 6 17% 32 76.12 0.0
04 16:15 E 11 16.09 Fair CLR 34 6 17% 32 76.12 0.0
04 15:55 Vrbl 7 16.09 Fair CLR 34 6 17% 32 76.12 0.0
04 15:35 SE 9 16.09 Light Rain CLR 34 5 16% 32 76.15 0.0
04 15:15 E 11 16.09 Fair CLR 34 7 19% 32 76.15 0.0
04 14:55 Calm 16.09 Fair CLR 33 7 20% 31 76.17 0.0
04 14:35 S 13 16.09 Fair CLR 33 6 18% 31 76.2 0.0
04 14:15 Vrbl 9 G 20 16.09 Fair CLR 33 6 18% 31 76.2 0.0
04 13:55 SE 11 16.09 Fair CLR 33 6 18% 31 76.2 0.0
04 13:35 SW 17 16.09 Fair CLR 33 6 18% 31 76.2 0.0
04 13:15 Vrbl 7 G 19 16.09 Fair CLR 32 6 20% 30 76.2 0.0
04 12:55 W 15 16.09 Fair CLR 32 8 22% 30 76.2 0.0
04 12:35 Vrbl 6 16.09 Fair CLR 32 9 24% 30 76.23 0.0
04 12:15 NW 7 16.09 Fair CLR 31 10 27% 29 76.23 0.0
04 11:55 N 15 16.09 Fair CLR 31 11 29% 30 76.25 0.0
04 11:35 N 11 16.09 Fair CLR 29 11 33% 28 76.25 0.0
04 11:15 NW 11 16.09 Fair CLR 28 11 35% 27 76.28 0.0
04 10:55 W 13 16.09 Fair CLR 27 12 39% 27 76.25 0.0
04 10:35 W 13 G 22 16.09 Fair CLR 26 12 42% 26 76.25 0.0
04 10:15 W 17 16.09 Fair CLR 25 12 44% 26 76.25 0.0
04 09:55 SW 15 16.09 Fair CLR 24 13 50% 25 76.25 0.0
04 09:35 W 15 16.09 Fair CLR 23 14 57% 76.25 0.0
04 09:15 SW 17 16.09 Fair CLR 22 13 57% 76.23 0.0
04 08:55 W 15 16.09 Fair CLR 21 13 60% 76.23 0.0
04 08:35 SW 15 16.09 Fair CLR 21 12 57% 76.23 0.0
04 08:15 SW 13 16.09 Fair CLR 20 12 60% 76.23 0.0
04 07:55 SW 7 16.09 Fair CLR 19 12 64% 76.2 0.0
04 07:35 SW 6 16.09 Fair CLR 17 12 73% 76.17 0.0
04 07:15 SW 6 16.09 Fair CLR 17 12 73% 76.12 0.0
04 06:55 N 15 16.09 Fair CLR 17 11 68% 76.1 0.0
04 06:35 N 13 16.09 Fair CLR 17 11 68% 76.1 0.0
04 06:15 N 17 16.09 Fair CLR 17 11 68% 76.07 0.0
04 05:55 N 15 16.09 Fair CLR 16 11 72% 76.07 0.0
04 05:35 N 17 16.09 Fair CLR 17 11 68% 76.05 0.0
04 05:15 N 19 16.09 Fair CLR 17 11 68% 76.05 0.0
04 04:55 N 19 16.09 Fair CLR 17 11 68% 76.05 0.0
04 04:35 N 17 16.09 Fair CLR 17 11 68% 76.05 0.0
04 04:15 NW 20 16.09 Fair CLR 17 11 68% 76.05 0.0
04 03:55 NW 19 16.09 Fair CLR 18 12 68% 76.05 0.0
04 03:35 NW 13 16.09 Fair CLR 18 12 68% 76.05 0.0
04 03:15 NW 13 16.09 Fair CLR 19 11 60% 76.07 0.0
04 02:55 Vrbl 7 16.09 Fair CLR 19 11 60% 76.05 0.0
04 02:35 Calm 16.09 Fair CLR 20 11 56% 76.05 0.0
04 02:15 NW 9 16.09 Fair CLR 20 11 56% 76.07 0.0
04 01:55 NW 11 16.09 Fair CLR 19 11 60% 76.07 0.0
04 01:35 W 7 16.09 Fair CLR 21 11 53% 76.1 0.0
04 01:15 Calm 16.09 Fair CLR 21 11 53% 76.1 0.0
04 00:55 Calm 16.09 Fair CLR 21 12 57% 76.1 0.0
04 00:35 E 15 16.09 Fair CLR 22 12 53% 76.07 0.0
04 00:15 E 17 16.09 Fair CLR 22 11 50% 76.07 0.0
03 23:55 E 22 16.09 Fair CLR 22 11 50% 76.1 0.0
03 23:35 E 20 16.09 Fair CLR 23 10 44% 76.1 0.0
03 23:15 E 19 16.09 Fair CLR 23 10 44% 76.07 0.0
03 22:55 E 20 16.09 Fair CLR 23 9 41% 76.07 0.0
03 22:35 E 17 16.09 Fair CLR 23 10 44% 76.07 0.0
03 22:15 E 13 16.09 Fair CLR 20 10 53% 76.07 0.0
03 21:55 E 15 16.09 Fair CLR 22 9 44% 76.07 0.0
03 21:35 E 17 16.09 Fair CLR 22 9 44% 76.07 0.0
03 21:15 NE 15 16.09 Fair CLR 21 9 46% 76.05 0.0
03 20:55 E 11 16.09 Fair CLR 22 9 44% 76.05 0.0
03 20:35 NE 15 16.09 Fair CLR 23 9 41% 76.05 0.0
03 20:15 NE 17 16.09 Fair CLR 23 9 41% 76.02 0.0
03 19:55 NE 15 16.09 Fair CLR 23 10 44% 76 0.0
03 19:35 NE 17 16.09 Fair CLR 25 10 39% 26 76 0.0
03 19:15 NE 15 16.09 Fair CLR 27 10 34% 27 76 0.0
03 18:55 NE 15 16.09 Fair CLR 29 9 29% 28 76 0.0
03 18:35 NE 13 16.09 Fair CLR 30 8 25% 28 76 0.0
03 18:15 E 13 16.09 Fair CLR 32 6 20% 30 76 0.0
03 17:55 E 13 G 24 16.09 Fair CLR 33 6 18% 31 76 0.0
03 17:35 E 15 G 26 16.09 Fair CLR 33 5 17% 31 76.02 0.0
03 17:15 NE 17 16.09 Fair CLR 33 7 20% 31 76.02 0.0
03 16:55 E 15 G 28 16.09 Fair CLR 33 8 21% 31 76.02 0.0
03 16:35 E 13 G 26 16.09 Fair CLR 33 8 21% 31 76.02 0.0
03 16:15 E 13 16.09 Fair CLR 33 8 21% 31 76.05 0.0
03 15:55 E 13 16.09 Fair CLR 33 8 21% 31 76.05 0.0
03 15:35 Vrbl 9 16.09 Fair CLR 33 8 21% 31 76.07 0.0
03 15:15 Calm 16.09 Fair CLR 32 8 22% 30 76.07 0.0
03 14:55 E 13 16.09 Fair CLR 32 8 22% 30 76.1 0.0
03 14:35 SW 13 16.09 Fair CLR 32 8 22% 30 76.12 0.0
03 14:15 E 9 16.09 Fair CLR 31 9 25% 29 76.12 0.0
03 13:55 S 11 16.09 Fair CLR 31 9 25% 29 76.15 0.0
03 13:35 Vrbl 9 16.09 Fair CLR 31 10 27% 29 76.15 0.0
03 13:15 Calm 16.09 Fair CLR 31 10 27% 29 76.17 0.0
03 12:55 Vrbl 9 G 20 16.09 Fair CLR 30 10 29% 29 76.2 0.0
03 12:35 S 17 16.09 Fair CLR 30 10 29% 29 76.2 0.0
03 12:15 Calm 16.09 Fair CLR 29 10 31% 28 76.23 0.0
03 11:55 SE 9 16.09 Fair CLR 29 11 33% 28 76.25 0.0
03 11:35 Vrbl 13 16.09 Fair CLR 28 11 35% 27 76.25 0.0
03 11:15 SE 13 16.09 Fair CLR 28 12 37% 27 76.25 0.0
03 10:55 SE 11 16.09 Fair CLR 27 12 39% 27 76.25 0.0
03 10:35 S 15 16.09 Fair CLR 26 12 42% 26 76.25 0.0
03 10:15 S 13 16.09 Fair CLR 25 12 44% 26 76.25 0.0
03 09:55 S 13 16.09 Fair CLR 25 12 44% 26 76.25 0.0
Date Time (mdt) Wind (kph) Vis. (km) Weather Sky Cond. Air Dwpt Max. Min. Relative Humidity Wind Chill (°C) Heat Index (°C) altimeter (cm) sea level (mb) 1 hr 3 hr 6 hr
6 hour
Temperature (ºC) Pressure Precipitation (cm)